Latest Weather Observations for Macquarie Island

IDT60801

Issued at 5:02 pm EDT Sunday 22 October 2017 (issued every 30 minutes, with the page automatically refreshed every 10 minutes)

About weather observations | Map of weather stations | Latest weather observations for TAS | Other Formats
Station Details ID: 300004 Name: MACQUARIE ISLAND Lat: -54.50 Lon: 158.94 Height: 6.0 m
Data from the previous 72 hours. | See also: Recent months at Macquarie Island
Date/Time
EDT
Temp
°C
App
Temp
°C
Dew
Point
°C
Rel
Hum
%
Delta-T
°C
Wind Press
QNH
hPa
Press
MSL
hPa
Rain since
9am
mm
Dir  Spd
km/h
Gust
km/h
Spd
kts
Gust
kts
22/05:00pm 1.3 -4.7 -1.4 82 1.0 W 20 26 11 14 993.6 - 0.0
22/04:30pm 1.1 -5.4 -2.3 78 1.2 W 22 28 12 15 993.8 - 0.0
22/04:00pm 1.3 -5.9 -2.3 77 1.2 W 26 32 14 17 993.9 - 0.0
22/03:30pm 1.3 -5.7 -3.2 72 1.6 W 24 35 13 19 993.9 - 0.0
22/03:00pm 1.4 -5.5 -2.9 73 1.6 W 24 33 13 18 994.1 994.4 0.0
22/02:30pm 1.0 -5.9 -2.7 76 1.3 W 24 33 13 18 994.3 - 0.0
22/02:00pm 0.8 -6.9 -2.9 76 1.3 W 28 37 15 20 994.4 - 0.0
22/01:30pm 0.7 -6.3 -3.6 73 1.5 W 24 41 13 22 994.4 - 0.0
22/01:00pm 0.7 -7.3 -2.5 79 1.1 W 30 44 16 24 994.6 - 0.0
22/12:30pm 0.8 -5.8 -3.7 72 1.5 W 22 43 12 23 994.5 - 0.0
22/12:00pm 0.6 -6.5 -4.0 71 1.6 W 24 43 13 23 994.5 994.8 0.0
22/11:30am 0.8 -5.5 -3.7 72 1.5 W 20 41 11 22 994.4 - 0.0
22/11:00am 0.5 -5.8 -3.9 72 1.5 W 20 43 11 23 994.6 - 0.0
22/10:32am 0.4 -7.4 -3.5 75 1.3 W 28 46 15 25 994.5 - 0.0
22/10:30am 0.4 -7.4 -3.7 74 1.4 W 28 39 15 21 994.5 - 0.0
22/10:00am 0.1 -6.6 -4.0 74 1.3 WSW 22 43 12 23 994.7 - 0.0
22/09:42am 0.3 -7.4 -2.9 79 1.1 WNW 28 41 15 22 994.5 - 0.0
22/09:30am 0.4 -4.8 -3.1 77 1.2 WSW 15 20 8 11 994.6 - 0.0
22/09:00am 0.4 -6.3 -4.4 70 1.6 WSW 22 44 12 24 994.7 995.0 4.0
22/08:30am 0.4 -7.0 -4.0 72 1.5 WSW 26 44 14 24 994.7 - 4.0
22/08:00am 0.5 -5.8 -4.3 70 1.6 WSW 20 46 11 25 994.4 - 3.6
22/07:30am 0.6 -6.1 -4.0 71 1.5 SSW 22 35 12 19 994.1 - 3.6
22/07:21am 0.5 -7.3 -4.1 71 1.5 WSW 28 46 15 25 994.0 - 3.6
22/07:00am 0.4 -5.9 -4.0 72 1.5 SW 20 33 11 18 993.8 - 3.6
22/06:30am 0.6 -6.4 -3.7 73 1.5 SSW 24 43 13 23 993.5 - 3.6
22/06:00am 0.5 -6.7 -4.9 67 1.8 WSW 24 37 13 20 993.2 993.5 3.6
22/05:30am 0.1 -6.2 -3.8 75 1.3 S 20 30 11 16 992.9 - 3.6
22/05:12am 0.3 -7.5 -3.8 74 1.4 SW 28 46 15 25 992.8 - 3.6
22/05:00am 0.3 -6.5 -5.1 67 1.7 SW 22 39 12 21 992.6 - 3.6
22/04:30am 0.4 -6.6 -3.7 74 1.4 SSW 24 54 13 29 992.4 - 3.6
22/04:00am -0.1 -7.0 -3.0 81 1.0 SW 24 43 13 23 992.3 - 3.6
22/03:30am 0.2 -7.3 -4.1 73 1.4 SW 26 37 14 20 992.0 - 3.6
22/03:05am 0.0 -8.2 -4.2 73 1.4 WSW 30 56 16 30 991.9 - 3.6
22/03:00am 0.2 -6.8 -3.3 77 1.2 SW 24 39 13 21 991.9 992.2 3.6
22/02:31am -0.1 -8.3 -3.8 76 1.2 SSW 30 48 16 26 991.6 - 3.6
22/02:30am -0.1 -8.7 -3.8 76 1.2 SSW 32 48 17 26 991.6 - 3.6
22/02:18am -0.1 -8.7 -4.2 74 1.3 S 32 54 17 29 991.5 - 3.6
22/02:00am 0.2 -6.3 -2.8 80 1.0 SSW 22 39 12 21 991.1 - 3.6
22/01:34am 0.3 -7.5 -4.0 73 1.4 WSW 28 50 15 27 991.0 - 3.6
22/01:30am 0.4 -6.3 -4.0 72 1.5 SW 22 39 12 21 991.0 - 3.6
22/01:00am 0.2 -8.4 -3.9 74 1.4 WSW 32 54 17 29 990.8 - 3.6
22/12:30am 0.5 -7.6 -3.4 75 1.3 WSW 30 56 16 30 990.6 - 3.6
22/12:00am 0.3 -6.5 -2.2 83 0.9 SW 24 44 13 24 990.5 990.8 3.6
 
Date/Time
EDT
Temp
°C
App
Temp
°C
Dew
Point
°C
Rel
Hum
%
Delta-T
°C
Wind Press
QNH
hPa
Press
MSL
hPa
Rain since
9am
mm
Dir  Spd
km/h
Gust
km/h
Spd
kts
Gust
kts
21/11:30pm 1.1 -7.0 -3.0 74 1.4 SSW 30 48 16 26 989.9 - 3.6
21/11:02pm 1.1 -6.5 -2.1 79 1.1 SSW 28 46 15 25 989.7 - 3.6
21/11:00pm 1.2 -6.4 -2.0 79 1.1 SSW 28 44 15 24 989.7 - 3.6
21/10:30pm 1.6 -6.8 -2.5 74 1.4 S 32 54 17 29 989.3 - 3.6
21/10:00pm 1.4 -6.9 -1.8 79 1.1 SSW 32 52 17 28 989.0 - 3.6
21/09:30pm 1.7 -7.2 -1.7 78 1.2 SSW 35 63 19 34 988.6 - 3.4
21/09:00pm 1.9 -6.8 -0.8 82 1.0 SSW 35 61 19 33 988.3 988.6 3.4
21/08:30pm 2.0 -7.2 -1.1 80 1.1 SSW 37 61 20 33 987.7 - 3.2
21/08:00pm 2.3 -6.6 -1.7 75 1.4 SSW 35 56 19 30 987.0 - 3.2
21/07:30pm 2.3 -7.7 -2.0 73 1.5 SSW 41 67 22 36 986.3 - 3.2
21/07:00pm 2.4 -8.1 -2.5 70 1.7 SSW 43 69 23 37 985.5 - 3.2
21/06:30pm 2.8 -8.9 -1.7 72 1.6 SSW 50 74 27 40 984.6 - 3.2
21/06:00pm 3.1 -7.3 -0.7 76 1.4 SSW 44 80 24 43 983.6 983.9 3.2
21/05:30pm 3.1 -7.6 0.0 80 1.2 SSW 46 76 25 41 982.7 - 3.2
21/05:00pm 3.1 -7.2 0.3 82 1.0 SSW 44 74 24 40 981.8 - 3.2
21/04:30pm 3.4 -6.6 0.8 83 1.0 SSW 43 65 23 35 980.8 - 3.2
21/04:01pm 3.6 -5.6 1.3 85 0.9 SSW 39 57 21 31 979.7 - 3.2
21/04:00pm 3.5 -5.7 1.1 84 0.9 SSW 39 56 21 30 979.6 - 3.2
21/03:30pm 3.5 -5.3 1.2 85 0.9 SSW 37 65 20 35 978.6 - 3.0
21/03:00pm 3.5 -6.1 1.2 85 0.9 SSW 41 72 22 39 977.6 977.9 2.4
21/02:30pm 3.7 -5.5 1.4 85 0.9 SSW 39 57 21 31 976.5 - 2.0
21/02:00pm 3.7 -4.7 1.6 86 0.8 SSW 35 69 19 37 975.5 - 1.6
21/01:59pm 3.5 -4.6 1.2 85 0.9 SW 33 69 18 37 975.5 - 1.6
21/01:56pm 3.8 -3.2 1.8 87 0.8 SW 28 50 15 27 975.4 - 1.6
21/01:30pm 3.7 -3.9 0.7 81 1.1 WSW 30 44 16 24 974.8 - 1.2
21/01:00pm 4.2 -0.8 1.6 83 1.0 SW 17 30 9 16 974.4 - 1.2
21/12:30pm 4.1 -1.4 0.8 79 1.3 SW 19 39 10 21 973.9 - 1.0
21/12:00pm 4.2 -2.0 0.0 74 1.6 SSW 22 37 12 20 973.4 973.7 1.0
21/11:30am 4.2 -1.5 0.7 78 1.3 WSW 20 32 11 17 973.1 - 1.0
21/11:00am 4.4 -0.6 1.3 80 1.2 SW 17 30 9 16 972.6 - 1.0
21/10:30am 3.8 -0.8 1.4 84 0.9 SW 15 22 8 12 972.2 - 1.0
21/10:00am 4.8 -0.5 2.8 87 0.8 W 20 30 11 16 972.0 - 0.8
21/09:30am 3.5 -2.3 2.5 93 0.4 WNW 22 28 12 15 972.0 - 0.8
21/09:00am 3.0 -2.5 2.0 93 0.4 WNW 20 26 11 14 972.2 972.5 4.2
21/08:30am 2.4 -5.5 1.1 91 0.5 NW 32 43 17 23 972.8 - 3.2
21/08:00am 2.7 -6.1 1.1 89 0.6 NW 37 46 20 25 973.3 - 3.0
21/07:30am 2.0 -8.0 0.8 92 0.4 NW 43 50 23 27 974.2 - 2.8
21/07:00am 2.2 -8.1 0.3 87 0.7 NW 44 52 24 28 974.8 - 2.8
21/06:42am 2.5 -8.5 0.4 86 0.8 NW 48 70 26 38 974.9 - 2.6
21/06:30am 2.8 -7.5 0.4 84 0.9 NW 44 56 24 30 975.2 - 2.6
21/06:10am 2.1 -6.8 0.6 90 0.6 NNW 37 56 20 30 975.7 - 2.6
21/06:00am 1.7 -8.0 0.5 92 0.5 NW 41 57 22 31 975.9 976.2 2.6
21/05:33am 2.5 -7.9 -0.1 83 1.0 NW 44 65 24 35 976.1 - 2.6
21/05:30am 2.5 -7.9 -0.1 83 1.0 NW 44 54 24 29 976.2 - 2.4
21/05:00am 3.1 -8.6 -1.6 71 1.7 NW 50 61 27 33 976.1 - 2.4
21/04:30am 3.2 -8.4 -1.0 74 1.5 NW 50 61 27 33 976.5 - 2.4
21/04:00am 3.4 -9.3 -0.6 75 1.5 NW 56 65 30 35 976.9 - 2.4
21/03:30am 3.1 -8.2 1.2 87 0.7 WNW 50 65 27 35 977.4 - 2.4
21/03:00am 3.6 -9.3 2.0 89 0.6 WNW 59 72 32 39 977.5 977.8 2.2
21/02:40am 4.4 -7.4 2.8 89 0.6 NW 54 67 29 36 977.2 - 2.2
21/02:31am 4.7 -9.1 3.2 90 0.6 N 65 83 35 45 977.0 - 2.2
21/02:30am 4.8 -9.0 3.5 91 0.5 N 65 78 35 42 977.1 - 2.2
21/02:26am 4.8 -8.9 3.6 92 0.5 N 65 78 35 42 977.4 - 2.2
21/02:00am 4.7 -5.1 3.4 91 0.5 N 44 63 24 34 979.0 - 2.0
21/01:59am 4.7 -5.1 3.4 91 0.5 N 44 63 24 34 979.0 - 1.8
21/01:30am 4.8 -4.8 3.3 90 0.6 N 43 59 23 32 980.5 - 1.2
21/01:20am 4.7 -5.1 3.2 90 0.6 N 44 57 24 31 980.8 - 0.8
21/01:00am 4.9 -2.6 3.6 91 0.5 N 32 39 17 21 982.0 - 0.6
21/12:30am 4.6 -2.9 3.4 92 0.5 N 32 41 17 22 983.4 - 0.4
21/12:00am 4.5 -3.0 3.3 92 0.5 N 32 39 17 21 985.0 985.3 0.4
 
Date/Time
EDT
Temp
°C
App
Temp
°C
Dew
Point
°C
Rel
Hum
%
Delta-T
°C
Wind Press
QNH
hPa
Press
MSL
hPa
Rain since
9am
mm
Dir  Spd
km/h
Gust
km/h
Spd
kts
Gust
kts
20/11:30pm 4.3 -2.5 3.3 93 0.4 N 28 39 15 21 986.3 - 0.2
20/11:00pm 3.9 -2.2 2.7 92 0.5 N 24 28 13 15 987.7 - 0.0
20/10:30pm 4.0 -4.2 2.5 90 0.6 N 35 43 19 23 988.9 - 0.0
20/10:00pm 4.5 -3.7 2.7 88 0.7 N 35 41 19 22 989.9 - 0.0
20/09:30pm 4.7 -4.3 2.4 85 0.9 N 39 48 21 26 990.9 - 0.0
20/09:23pm 4.8 -3.9 2.0 82 1.1 N 37 48 20 26 991.1 - 0.0
20/09:00pm 4.8 -1.8 2.3 84 1.0 N 26 30 14 16 992.0 992.3 0.0
20/08:30pm 4.6 -2.0 2.0 83 1.0 N 26 28 14 15 992.9 - 0.0
20/08:00pm 4.5 -2.7 0.6 76 1.5 NNW 28 30 15 16 993.6 - 0.0
20/07:30pm 4.7 -2.7 1.7 81 1.2 NNW 30 33 16 18 994.2 - 0.0
20/07:00pm 4.4 -2.9 0.0 73 1.7 NNW 28 35 15 19 994.6 - 0.0
20/06:30pm 4.4 -3.6 0.2 74 1.6 NW 32 37 17 20 995.0 - 0.0
20/06:00pm 4.7 -2.9 0.5 74 1.6 NW 30 35 16 19 995.3 995.6 0.0
20/05:30pm 5.3 -2.2 1.4 76 1.5 NW 30 35 16 19 995.7 - 0.0
20/05:00pm 5.5 -2.7 0.5 70 1.9 NW 33 39 18 21 996.1 - 0.0
20/04:30pm 6.0 -1.4 1.7 74 1.7 WNW 30 35 16 19 996.4 - 0.0
20/04:00pm 6.1 -1.9 1.4 72 1.9 WNW 33 41 18 22 996.6 - 0.0
20/03:30pm 6.4 -1.6 1.5 71 2.0 WNW 33 39 18 21 996.8 - 0.0
20/03:00pm 6.7 -0.6 2.2 73 1.9 WNW 30 35 16 19 997.0 997.3 0.0
20/02:30pm 7.4 0.3 3.8 78 1.5 NW 30 35 16 19 997.2 - 0.0
20/02:00pm 7.3 0.6 3.5 77 1.6 NW 28 32 15 17 997.4 - 0.0
20/01:30pm 7.5 0.8 3.9 78 1.5 NW 28 32 15 17 997.5 - 0.0
20/01:00pm 7.2 -0.3 3.3 76 1.6 WNW 32 37 17 20 997.6 - 0.0
20/12:30pm 7.2 -0.3 3.3 76 1.6 WNW 32 39 17 21 997.6 - 0.0
20/12:00pm 7.3 0.2 3.5 77 1.6 WNW 30 35 16 19 997.7 998.0 0.0
20/11:30am 6.7 -0.9 3.0 77 1.5 WNW 32 39 17 21 997.7 - 0.0
20/11:00am 6.4 -0.8 3.2 80 1.3 WNW 30 37 16 20 997.8 - 0.0
20/10:30am 6.5 -0.2 3.7 82 1.2 NW 28 33 15 18 997.7 - 0.0
20/10:00am 6.2 -0.1 3.5 83 1.1 NW 26 30 14 16 997.6 - 0.0
20/09:30am 7.0 0.6 5.0 87 0.9 NW 28 41 15 22 997.4 - 0.0
20/09:00am 6.6 0.1 4.6 87 0.9 NW 28 32 15 17 997.2 997.5 0.6
20/08:30am 6.1 -0.9 4.3 88 0.8 NW 30 35 16 19 997.0 - 0.6
20/08:00am 5.6 -0.6 4.1 90 0.6 NW 26 30 14 16 997.0 - 0.6
20/07:30am 5.2 -1.8 4.0 92 0.5 NNW 30 35 16 19 996.9 - 0.6
20/07:00am 4.9 -2.2 3.7 92 0.5 NNW 30 33 16 18 997.0 - 0.6
20/06:30am 4.7 -2.0 3.4 91 0.5 NNW 28 32 15 17 996.8 - 0.6
20/06:00am 4.3 -1.4 3.0 91 0.5 NW 22 26 12 14 996.8 997.1 0.6
20/05:30am 3.9 -1.5 2.6 91 0.5 NW 20 24 11 13 996.7 - 0.6
20/05:00am 3.8 -2.0 2.5 91 0.5 WNW 22 28 12 15 996.8 - 0.6
20/04:30am 3.7 -2.9 2.2 90 0.6 WNW 26 30 14 16 996.9 - 0.6
20/04:00am 3.7 -3.3 1.9 88 0.7 WNW 28 35 15 19 997.0 - 0.6
20/03:30am 3.7 -4.1 1.9 88 0.7 W 32 39 17 21 997.3 - 0.6
20/03:00am 3.4 -4.4 1.6 88 0.7 W 32 37 17 20 997.4 997.7 0.6
20/02:30am 3.6 -3.4 1.8 88 0.7 W 28 33 15 18 997.5 - 0.6
20/02:00am 3.6 -3.0 2.0 89 0.6 W 26 30 14 16 997.8 - 0.6
20/01:30am 3.8 -1.6 2.6 92 0.5 WNW 20 24 11 13 997.8 - 0.4
20/01:00am 4.1 -1.6 2.6 90 0.6 WNW 22 28 12 15 998.1 - 0.4
20/12:30am 3.9 -1.5 2.4 90 0.6 W 20 24 11 13 998.3 - 0.4
20/12:00am 4.0 -1.2 2.5 90 0.6 WNW 19 24 10 13 998.5 998.8 0.4
 
Date/Time
EDT
Temp
°C
App
Temp
°C
Dew
Point
°C
Rel
Hum
%
Delta-T
°C
Wind Press
QNH
hPa
Press
MSL
hPa
Rain since
9am
mm
Dir  Spd
km/h
Gust
km/h
Spd
kts
Gust
kts
19/11:30pm 3.8 -1.5 2.0 88 0.7 W 19 22 10 12 998.6 - 0.4
19/11:00pm 4.0 -0.7 3.0 93 0.4 WNW 17 20 9 11 998.8 - 0.4
19/10:30pm 4.1 0.9 3.1 93 0.4 W 9 13 5 7 998.7 - 0.4
19/10:00pm 4.6 0.7 3.6 93 0.4 NW 13 15 7 8 999.0 - 0.4
19/09:30pm 4.7 1.6 3.7 93 0.4 NW 9 11 5 6 999.2 - 0.4
19/09:00pm 5.0 2.9 3.7 91 0.5 ENE 4 11 2 6 999.0 999.3 0.4
19/08:30pm 4.9 1.0 3.2 89 0.7 W 13 20 7 11 998.7 - 0.4
19/08:00pm 5.3 2.3 4.1 92 0.5 WSW 9 15 5 8 998.5 - 0.4
19/07:30pm 5.4 -0.4 4.4 93 0.4 WNW 24 30 13 16 998.0 - 0.4
19/07:00pm 5.6 0.2 4.6 93 0.4 NW 22 28 12 15 997.9 - 0.4
19/06:30pm 5.7 0.7 4.8 94 0.4 NW 20 24 11 13 997.2 - 0.4
19/06:00pm 5.9 -0.2 5.0 94 0.4 NW 26 32 14 17 997.2 997.5 0.4
19/05:30pm 6.1 -0.7 5.2 94 0.4 NW 30 33 16 18 997.4 - 0.4

Other Formats:

Comma delimited format used in spreadsheet applications
http://www.bom.gov.au/fwo/IDT60801/IDT60801.94998.axf

JavaScript Object Notation format (JSON) in row-major order
http://www.bom.gov.au/fwo/IDT60801/IDT60801.94998.json